Guarenas, Venezuela
Current Conditions -  °F | °C
As of 8:00 PM on Saturday 22 Nov 2014 (Local Time) from SVMI Reporting Station
Scattered Clouds Scattered Clouds  
Wind Chill: 81°   Ceiling: Unl
Heat Index: 85°   Visibility: 6mi
Dew Point: 73°   Wind: 6mph
Humidity: 79%   Direction: 70°ENE
Pressure: 29.91"   Gusts: NA
Location:  10.47°N, 66.62°W
Report Text: SVMI 230000Z 07005KT 9999 SCT016 27/23 Q1013 NOSIG
Loading
Personal Weather Stations






























Interactive Weather Map New forecast layout! Learn more

10-Day Weather Forecast

Advertisements
Track Severe Weather on mobile